sensor_id;sensor_type;location;lat;lon;timestamp;temperature;humidity
285;DHT22;127;48.770;9.212;2022-10-31T00:01:35;13.60;99.90
285;DHT22;127;48.770;9.212;2022-10-31T00:04:04;13.60;99.90
285;DHT22;127;48.770;9.212;2022-10-31T00:06:33;13.50;99.90
285;DHT22;127;48.770;9.212;2022-10-31T00:09:04;13.50;99.90
285;DHT22;127;48.770;9.212;2022-10-31T00:11:35;13.50;99.90
285;DHT22;127;48.770;9.212;2022-10-31T00:14:04;13.50;99.90
285;DHT22;127;48.770;9.212;2022-10-31T00:16:33;13.50;99.90
285;DHT22;127;48.770;9.212;2022-10-31T00:19:03;13.50;99.90
285;DHT22;127;48.770;9.212;2022-10-31T00:21:33;13.40;99.90
285;DHT22;127;48.770;9.212;2022-10-31T00:24:03;13.40;99.90
285;DHT22;127;48.770;9.212;2022-10-31T00:26:32;13.40;99.90
285;DHT22;127;48.770;9.212;2022-10-31T00:29:03;13.40;99.90
285;DHT22;127;48.770;9.212;2022-10-31T00:31:32;13.40;99.90
285;DHT22;127;48.770;9.212;2022-10-31T00:34:01;13.30;99.90
285;DHT22;127;48.770;9.212;2022-10-31T00:36:31;13.30;99.90
285;DHT22;127;48.770;9.212;2022-10-31T00:38:59;13.30;99.90
285;DHT22;127;48.770;9.212;2022-10-31T00:41:28;13.30;99.90
285;DHT22;127;48.770;9.212;2022-10-31T00:43:57;13.30;99.90
285;DHT22;127;48.770;9.212;2022-10-31T00:46:28;13.20;99.90
285;DHT22;127;48.770;9.212;2022-10-31T00:48:57;13.20;99.90
285;DHT22;127;48.770;9.212;2022-10-31T00:51:26;13.20;99.90
285;DHT22;127;48.770;9.212;2022-10-31T00:53:54;13.20;99.90
285;DHT22;127;48.770;9.212;2022-10-31T00:56:23;13.20;99.90
285;DHT22;127;48.770;9.212;2022-10-31T00:58:52;13.20;99.90
285;DHT22;127;48.770;9.212;2022-10-31T01:01:21;13.20;99.90
285;DHT22;127;48.770;9.212;2022-10-31T01:03:52;13.20;99.90
285;DHT22;127;48.770;9.212;2022-10-31T01:06:20;13.20;99.90
285;DHT22;127;48.770;9.212;2022-10-31T01:08:49;13.20;99.90
285;DHT22;127;48.770;9.212;2022-10-31T01:11:19;13.20;99.90
285;DHT22;127;48.770;9.212;2022-10-31T01:13:50;13.20;99.90
285;DHT22;127;48.770;9.212;2022-10-31T01:16:22;13.10;99.90
285;DHT22;127;48.770;9.212;2022-10-31T01:18:53;13.10;99.90
285;DHT22;127;48.770;9.212;2022-10-31T01:21:23;13.10;99.90
285;DHT22;127;48.770;9.212;2022-10-31T01:23:53;13.10;99.90
285;DHT22;127;48.770;9.212;2022-10-31T01:26:24;13.20;99.90
285;DHT22;127;48.770;9.212;2022-10-31T01:28:56;13.10;99.90
285;DHT22;127;48.770;9.212;2022-10-31T01:31:26;13.20;99.90
285;DHT22;127;48.770;9.212;2022-10-31T01:33:58;13.10;99.90
285;DHT22;127;48.770;9.212;2022-10-31T01:36:29;13.20;99.90
285;DHT22;127;48.770;9.212;2022-10-31T01:38:59;13.10;99.90
285;DHT22;127;48.770;9.212;2022-10-31T01:41:30;13.10;99.90
285;DHT22;127;48.770;9.212;2022-10-31T01:44:01;13.10;99.90
285;DHT22;127;48.770;9.212;2022-10-31T01:46:32;13.00;99.90
285;DHT22;127;48.770;9.212;2022-10-31T01:49:08;13.00;1.00
285;DHT22;127;48.770;9.212;2022-10-31T01:51:41;12.80;99.90
285;DHT22;127;48.770;9.212;2022-10-31T01:54:14;12.60;1.00
285;DHT22;127;48.770;9.212;2022-10-31T01:56:47;12.60;1.00
285;DHT22;127;48.770;9.212;2022-10-31T01:59:19;12.60;1.00
285;DHT22;127;48.770;9.212;2022-10-31T02:01:50;12.60;1.00
285;DHT22;127;48.770;9.212;2022-10-31T02:04:24;12.70;1.00
285;DHT22;127;48.770;9.212;2022-10-31T02:06:57;12.70;1.00
285;DHT22;127;48.770;9.212;2022-10-31T02:09:27;12.60;1.00
285;DHT22;127;48.770;9.212;2022-10-31T02:11:59;12.70;1.00
285;DHT22;127;48.770;9.212;2022-10-31T02:14:29;12.70;1.00
285;DHT22;127;48.770;9.212;2022-10-31T02:16:58;12.60;1.00
285;DHT22;127;48.770;9.212;2022-10-31T02:19:34;12.50;1.00
285;DHT22;127;48.770;9.212;2022-10-31T02:22:11;12.40;1.00
285;DHT22;127;48.770;9.212;2022-10-31T02:25:02;12.30;1.00
285;DHT22;127;48.770;9.212;2022-10-31T02:27:59;12.30;1.00
285;DHT22;127;48.770;9.212;2022-10-31T02:30:37;12.30;1.00
285;DHT22;127;48.770;9.212;2022-10-31T02:33:18;12.20;1.00
285;DHT22;127;48.770;9.212;2022-10-31T02:35:55;12.20;1.00
285;DHT22;127;48.770;9.212;2022-10-31T02:38:33;12.20;1.00
285;DHT22;127;48.770;9.212;2022-10-31T02:41:15;12.10;1.00
285;DHT22;127;48.770;9.212;2022-10-31T02:43:55;12.00;1.00
285;DHT22;127;48.770;9.212;2022-10-31T02:46:34;12.00;1.00
285;DHT22;127;48.770;9.212;2022-10-31T02:49:10;11.90;1.00
285;DHT22;127;48.770;9.212;2022-10-31T02:51:39;11.90;1.00
285;DHT22;127;48.770;9.212;2022-10-31T02:54:18;11.80;1.00
285;DHT22;127;48.770;9.212;2022-10-31T02:56:47;11.80;1.00
285;DHT22;127;48.770;9.212;2022-10-31T02:59:17;11.80;1.00
285;DHT22;127;48.770;9.212;2022-10-31T03:02:05;11.80;1.00
285;DHT22;127;48.770;9.212;2022-10-31T03:04:56;11.80;1.00
285;DHT22;127;48.770;9.212;2022-10-31T03:07:30;11.70;1.00
285;DHT22;127;48.770;9.212;2022-10-31T03:10:06;11.70;1.00
285;DHT22;127;48.770;9.212;2022-10-31T03:12:42;11.60;1.00
285;DHT22;127;48.770;9.212;2022-10-31T03:15:17;11.60;1.00
285;DHT22;127;48.770;9.212;2022-10-31T03:17:52;11.50;1.00
285;DHT22;127;48.770;9.212;2022-10-31T03:20:28;11.50;1.00
285;DHT22;127;48.770;9.212;2022-10-31T03:22:58;11.40;1.00
285;DHT22;127;48.770;9.212;2022-10-31T03:25:30;11.50;1.00
285;DHT22;127;48.770;9.212;2022-10-31T03:28:00;11.40;1.00
285;DHT22;127;48.770;9.212;2022-10-31T03:30:31;11.40;1.00
285;DHT22;127;48.770;9.212;2022-10-31T03:33:04;11.40;1.00
285;DHT22;127;48.770;9.212;2022-10-31T03:35:40;11.40;1.00
285;DHT22;127;48.770;9.212;2022-10-31T03:38:10;11.40;1.00
285;DHT22;127;48.770;9.212;2022-10-31T03:40:41;11.40;1.00
285;DHT22;127;48.770;9.212;2022-10-31T03:43:15;11.40;1.00
285;DHT22;127;48.770;9.212;2022-10-31T03:45:46;11.40;1.00
285;DHT22;127;48.770;9.212;2022-10-31T03:48:17;11.40;1.00
285;DHT22;127;48.770;9.212;2022-10-31T03:50:58;11.30;1.00
285;DHT22;127;48.770;9.212;2022-10-31T03:53:32;11.30;1.00
285;DHT22;127;48.770;9.212;2022-10-31T03:56:07;11.30;1.00
285;DHT22;127;48.770;9.212;2022-10-31T03:58:42;11.30;1.00
285;DHT22;127;48.770;9.212;2022-10-31T04:01:16;11.40;1.00
285;DHT22;127;48.770;9.212;2022-10-31T04:03:46;11.30;1.00
285;DHT22;127;48.770;9.212;2022-10-31T04:06:19;11.40;1.00
285;DHT22;127;48.770;9.212;2022-10-31T04:08:51;11.40;1.00
285;DHT22;127;48.770;9.212;2022-10-31T04:11:24;11.40;1.00
285;DHT22;127;48.770;9.212;2022-10-31T04:13:55;11.30;1.00
285;DHT22;127;48.770;9.212;2022-10-31T04:16:25;11.40;1.00
285;DHT22;127;48.770;9.212;2022-10-31T04:18:54;11.40;1.00
285;DHT22;127;48.770;9.212;2022-10-31T04:21:30;11.40;1.00
285;DHT22;127;48.770;9.212;2022-10-31T04:23:59;11.40;1.00
285;DHT22;127;48.770;9.212;2022-10-31T04:26:27;11.40;1.00
285;DHT22;127;48.770;9.212;2022-10-31T04:28:56;11.30;1.00
285;DHT22;127;48.770;9.212;2022-10-31T04:31:24;11.30;1.00
285;DHT22;127;48.770;9.212;2022-10-31T04:33:53;11.20;1.00
285;DHT22;127;48.770;9.212;2022-10-31T04:36:22;11.20;1.00
285;DHT22;127;48.770;9.212;2022-10-31T04:38:53;11.20;1.00
285;DHT22;127;48.770;9.212;2022-10-31T04:41:22;11.20;1.00
285;DHT22;127;48.770;9.212;2022-10-31T04:43:51;11.20;1.00
285;DHT22;127;48.770;9.212;2022-10-31T04:46:19;11.10;1.00
285;DHT22;127;48.770;9.212;2022-10-31T04:48:48;11.10;1.00
285;DHT22;127;48.770;9.212;2022-10-31T04:51:17;11.10;1.00
285;DHT22;127;48.770;9.212;2022-10-31T04:53:45;11.00;1.00
285;DHT22;127;48.770;9.212;2022-10-31T04:56:17;11.00;1.00
285;DHT22;127;48.770;9.212;2022-10-31T04:58:45;11.00;1.00
285;DHT22;127;48.770;9.212;2022-10-31T05:01:14;11.00;1.00
285;DHT22;127;48.770;9.212;2022-10-31T05:03:43;10.90;1.00
285;DHT22;127;48.770;9.212;2022-10-31T05:06:12;10.90;1.00
285;DHT22;127;48.770;9.212;2022-10-31T05:08:42;10.90;1.00
285;DHT22;127;48.770;9.212;2022-10-31T05:11:10;10.80;1.00
285;DHT22;127;48.770;9.212;2022-10-31T05:13:41;10.90;1.00
285;DHT22;127;48.770;9.212;2022-10-31T05:16:10;10.80;1.00
285;DHT22;127;48.770;9.212;2022-10-31T05:18:39;10.80;1.00
285;DHT22;127;48.770;9.212;2022-10-31T05:21:07;10.80;1.00
285;DHT22;127;48.770;9.212;2022-10-31T05:23:36;10.70;1.00
285;DHT22;127;48.770;9.212;2022-10-31T05:26:05;10.70;1.00
285;DHT22;127;48.770;9.212;2022-10-31T05:28:33;10.60;1.00
285;DHT22;127;48.770;9.212;2022-10-31T05:31:05;10.60;1.00
285;DHT22;127;48.770;9.212;2022-10-31T05:33:33;10.60;1.00
285;DHT22;127;48.770;9.212;2022-10-31T05:36:02;10.60;1.00
285;DHT22;127;48.770;9.212;2022-10-31T05:38:31;10.50;1.00
285;DHT22;127;48.770;9.212;2022-10-31T05:41:00;10.50;1.00
285;DHT22;127;48.770;9.212;2022-10-31T05:43:29;10.50;1.00
285;DHT22;127;48.770;9.212;2022-10-31T05:45:58;10.50;1.00
285;DHT22;127;48.770;9.212;2022-10-31T05:48:29;10.50;1.00
285;DHT22;127;48.770;9.212;2022-10-31T05:50:57;10.40;1.00
285;DHT22;127;48.770;9.212;2022-10-31T05:53:26;10.40;1.00
285;DHT22;127;48.770;9.212;2022-10-31T05:55:55;10.30;1.00
285;DHT22;127;48.770;9.212;2022-10-31T05:58:23;10.40;1.00
285;DHT22;127;48.770;9.212;2022-10-31T06:00:53;10.40;1.00
285;DHT22;127;48.770;9.212;2022-10-31T06:03:21;10.30;1.00
285;DHT22;127;48.770;9.212;2022-10-31T06:05:52;10.30;1.00
285;DHT22;127;48.770;9.212;2022-10-31T06:08:21;10.40;1.00
285;DHT22;127;48.770;9.212;2022-10-31T06:10:49;10.30;1.00
285;DHT22;127;48.770;9.212;2022-10-31T06:13:19;10.30;1.00
285;DHT22;127;48.770;9.212;2022-10-31T06:15:48;10.40;1.00
285;DHT22;127;48.770;9.212;2022-10-31T06:18:16;10.40;1.00
285;DHT22;127;48.770;9.212;2022-10-31T06:20:45;10.30;1.00
285;DHT22;127;48.770;9.212;2022-10-31T06:23:16;10.40;1.00
285;DHT22;127;48.770;9.212;2022-10-31T06:25:48;10.50;1.00
285;DHT22;127;48.770;9.212;2022-10-31T06:28:17;10.50;1.00
285;DHT22;127;48.770;9.212;2022-10-31T06:30:46;10.50;1.00
285;DHT22;127;48.770;9.212;2022-10-31T06:33:14;10.40;1.00
285;DHT22;127;48.770;9.212;2022-10-31T06:35:45;10.40;1.00
285;DHT22;127;48.770;9.212;2022-10-31T06:38:17;10.40;1.00
285;DHT22;127;48.770;9.212;2022-10-31T06:40:45;10.40;1.00
285;DHT22;127;48.770;9.212;2022-10-31T07:45:55;11.50;1.00
285;DHT22;127;48.770;9.212;2022-10-31T07:52:22;11.50;1.00
285;DHT22;127;48.770;9.212;2022-10-31T07:55:12;11.50;1.00
285;DHT22;127;48.770;9.212;2022-10-31T07:58:30;11.50;1.00
285;DHT22;127;48.770;9.212;2022-10-31T08:07:39;11.70;1.00
285;DHT22;127;48.770;9.212;2022-10-31T08:10:08;11.70;1.00
285;DHT22;127;48.770;9.212;2022-10-31T08:12:38;11.80;1.00
285;DHT22;127;48.770;9.212;2022-10-31T08:34:16;12.70;99.90
285;DHT22;127;48.770;9.212;2022-10-31T08:36:45;12.70;99.90
285;DHT22;127;48.770;9.212;2022-10-31T08:39:13;12.80;99.90
285;DHT22;127;48.770;9.212;2022-10-31T08:41:42;12.90;99.90
285;DHT22;127;48.770;9.212;2022-10-31T08:44:11;13.00;99.90
285;DHT22;127;48.770;9.212;2022-10-31T08:46:41;13.10;99.90
285;DHT22;127;48.770;9.212;2022-10-31T08:49:09;13.20;99.90
285;DHT22;127;48.770;9.212;2022-10-31T08:51:41;13.40;99.90
285;DHT22;127;48.770;9.212;2022-10-31T08:54:09;13.70;99.90
285;DHT22;127;48.770;9.212;2022-10-31T08:56:38;14.10;99.90
285;DHT22;127;48.770;9.212;2022-10-31T08:59:07;14.50;99.90
285;DHT22;127;48.770;9.212;2022-10-31T09:01:35;15.00;99.90
285;DHT22;127;48.770;9.212;2022-10-31T09:04:04;15.40;99.90
285;DHT22;127;48.770;9.212;2022-10-31T09:06:32;15.80;99.90
285;DHT22;127;48.770;9.212;2022-10-31T09:09:04;16.10;99.90
285;DHT22;127;48.770;9.212;2022-10-31T09:11:33;16.30;99.90
285;DHT22;127;48.770;9.212;2022-10-31T09:14:01;16.20;99.90
285;DHT22;127;48.770;9.212;2022-10-31T09:16:30;16.50;99.90
285;DHT22;127;48.770;9.212;2022-10-31T09:18:59;17.00;99.90
285;DHT22;127;48.770;9.212;2022-10-31T09:21:27;17.40;99.90
285;DHT22;127;48.770;9.212;2022-10-31T09:23:56;17.60;99.90
285;DHT22;127;48.770;9.212;2022-10-31T09:26:27;17.50;99.90
285;DHT22;127;48.770;9.212;2022-10-31T09:28:56;17.70;99.90
285;DHT22;127;48.770;9.212;2022-10-31T09:31:27;17.90;99.90
285;DHT22;127;48.770;9.212;2022-10-31T09:33:56;18.10;99.90
285;DHT22;127;48.770;9.212;2022-10-31T09:36:24;18.30;99.90
285;DHT22;127;48.770;9.212;2022-10-31T09:38:53;17.60;99.90
285;DHT22;127;48.770;9.212;2022-10-31T09:41:28;17.90;99.90
285;DHT22;127;48.770;9.212;2022-10-31T09:44:03;18.30;99.90
285;DHT22;127;48.770;9.212;2022-10-31T09:46:45;17.70;99.90
285;DHT22;127;48.770;9.212;2022-10-31T09:49:34;17.70;99.90
285;DHT22;127;48.770;9.212;2022-10-31T09:52:11;18.10;99.90
285;DHT22;127;48.770;9.212;2022-10-31T09:54:45;18.30;99.90
285;DHT22;127;48.770;9.212;2022-10-31T09:57:22;18.60;99.90
285;DHT22;127;48.770;9.212;2022-10-31T09:59:52;17.70;99.90
285;DHT22;127;48.770;9.212;2022-10-31T10:02:25;18.40;99.90
285;DHT22;127;48.770;9.212;2022-10-31T10:04:59;18.90;99.90
285;DHT22;127;48.770;9.212;2022-10-31T10:07:38;19.30;99.90
285;DHT22;127;48.770;9.212;2022-10-31T10:10:15;19.40;99.90
285;DHT22;127;48.770;9.212;2022-10-31T10:13:02;19.20;99.90
285;DHT22;127;48.770;9.212;2022-10-31T10:15:51;19.70;99.90
285;DHT22;127;48.770;9.212;2022-10-31T10:18:32;20.00;99.90
285;DHT22;127;48.770;9.212;2022-10-31T10:21:14;20.20;99.90
285;DHT22;127;48.770;9.212;2022-10-31T10:23:55;19.80;99.90
285;DHT22;127;48.770;9.212;2022-10-31T10:26:36;20.00;99.90
285;DHT22;127;48.770;9.212;2022-10-31T10:29:28;20.40;99.90
285;DHT22;127;48.770;9.212;2022-10-31T10:32:01;20.40;99.90
285;DHT22;127;48.770;9.212;2022-10-31T10:34:39;20.70;99.90
285;DHT22;127;48.770;9.212;2022-10-31T10:37:16;20.60;99.90
285;DHT22;127;48.770;9.212;2022-10-31T10:39:49;20.90;99.90
285;DHT22;127;48.770;9.212;2022-10-31T10:42:18;20.00;99.90
285;DHT22;127;48.770;9.212;2022-10-31T10:45:13;19.60;99.90
285;DHT22;127;48.770;9.212;2022-10-31T10:47:59;19.70;99.90
285;DHT22;127;48.770;9.212;2022-10-31T10:50:35;19.60;99.90
285;DHT22;127;48.770;9.212;2022-10-31T10:53:11;19.30;99.90
285;DHT22;127;48.770;9.212;2022-10-31T10:55:53;19.60;99.90
285;DHT22;127;48.770;9.212;2022-10-31T10:58:25;19.80;99.90
285;DHT22;127;48.770;9.212;2022-10-31T11:00:56;19.60;99.90
285;DHT22;127;48.770;9.212;2022-10-31T11:03:25;19.70;99.90
285;DHT22;127;48.770;9.212;2022-10-31T11:05:55;19.90;99.90
285;DHT22;127;48.770;9.212;2022-10-31T11:08:28;19.80;99.90
285;DHT22;127;48.770;9.212;2022-10-31T11:10:59;19.50;99.90
285;DHT22;127;48.770;9.212;2022-10-31T11:13:30;19.50;99.90
285;DHT22;127;48.770;9.212;2022-10-31T11:16:04;19.00;99.90
285;DHT22;127;48.770;9.212;2022-10-31T11:18:39;19.20;99.90
285;DHT22;127;48.770;9.212;2022-10-31T11:21:27;19.60;99.90
285;DHT22;127;48.770;9.212;2022-10-31T11:24:07;19.90;99.90
285;DHT22;127;48.770;9.212;2022-10-31T11:26:42;20.40;99.90
285;DHT22;127;48.770;9.212;2022-10-31T11:29:14;21.10;99.90
285;DHT22;127;48.770;9.212;2022-10-31T11:31:47;22.20;99.90
285;DHT22;127;48.770;9.212;2022-10-31T11:34:28;22.60;99.90
285;DHT22;127;48.770;9.212;2022-10-31T11:37:03;22.40;99.90
285;DHT22;127;48.770;9.212;2022-10-31T11:39:32;23.00;99.90
285;DHT22;127;48.770;9.212;2022-10-31T11:42:09;23.00;99.90
285;DHT22;127;48.770;9.212;2022-10-31T11:44:41;23.40;99.90
285;DHT22;127;48.770;9.212;2022-10-31T11:47:15;23.60;99.90
285;DHT22;127;48.770;9.212;2022-10-31T11:49:46;23.30;99.90
285;DHT22;127;48.770;9.212;2022-10-31T11:52:18;23.40;99.90
285;DHT22;127;48.770;9.212;2022-10-31T11:54:51;23.20;99.90
285;DHT22;127;48.770;9.212;2022-10-31T11:57:25;23.30;99.90
285;DHT22;127;48.770;9.212;2022-10-31T11:59:57;23.10;99.90
285;DHT22;127;48.770;9.212;2022-10-31T12:02:28;23.00;99.90
285;DHT22;127;48.770;9.212;2022-10-31T12:05:02;21.70;99.90
285;DHT22;127;48.770;9.212;2022-10-31T12:07:32;21.40;99.90
285;DHT22;127;48.770;9.212;2022-10-31T12:10:01;22.10;99.90
285;DHT22;127;48.770;9.212;2022-10-31T12:12:46;22.10;99.90
285;DHT22;127;48.770;9.212;2022-10-31T12:15:27;22.40;99.90
285;DHT22;127;48.770;9.212;2022-10-31T12:21:06;22.90;99.90
285;DHT22;127;48.770;9.212;2022-10-31T12:23:47;23.10;99.90
285;DHT22;127;48.770;9.212;2022-10-31T12:26:25;23.50;99.90
285;DHT22;127;48.770;9.212;2022-10-31T12:29:06;24.10;99.90
285;DHT22;127;48.770;9.212;2022-10-31T12:31:51;24.10;99.90
285;DHT22;127;48.770;9.212;2022-10-31T12:34:51;24.20;99.90
285;DHT22;127;48.770;9.212;2022-10-31T12:37:33;23.70;99.90
285;DHT22;127;48.770;9.212;2022-10-31T12:40:27;23.40;99.90
285;DHT22;127;48.770;9.212;2022-10-31T12:43:11;23.10;99.90
285;DHT22;127;48.770;9.212;2022-10-31T12:45:51;22.60;99.90
285;DHT22;127;48.770;9.212;2022-10-31T12:48:43;22.40;99.90
285;DHT22;127;48.770;9.212;2022-10-31T12:51:24;22.10;99.90
285;DHT22;127;48.770;9.212;2022-10-31T12:54:10;21.70;99.90
285;DHT22;127;48.770;9.212;2022-10-31T12:56:48;21.40;99.90
285;DHT22;127;48.770;9.212;2022-10-31T12:59:23;21.00;99.90
285;DHT22;127;48.770;9.212;2022-10-31T13:01:58;20.90;99.90
285;DHT22;127;48.770;9.212;2022-10-31T13:04:36;20.80;99.90
285;DHT22;127;48.770;9.212;2022-10-31T13:07:13;20.80;99.90
285;DHT22;127;48.770;9.212;2022-10-31T13:09:47;20.70;99.90
285;DHT22;127;48.770;9.212;2022-10-31T13:12:21;20.50;99.90
285;DHT22;127;48.770;9.212;2022-10-31T13:14:52;19.90;99.90
285;DHT22;127;48.770;9.212;2022-10-31T13:17:27;19.60;99.90
285;DHT22;127;48.770;9.212;2022-10-31T13:22:51;20.00;99.90
285;DHT22;127;48.770;9.212;2022-10-31T13:25:23;19.80;99.90
285;DHT22;127;48.770;9.212;2022-10-31T13:27:57;19.20;99.90
285;DHT22;127;48.770;9.212;2022-10-31T13:30:28;19.10;99.90
285;DHT22;127;48.770;9.212;2022-10-31T13:33:03;18.80;99.90
285;DHT22;127;48.770;9.212;2022-10-31T13:35:40;18.80;99.90
285;DHT22;127;48.770;9.212;2022-10-31T13:38:18;18.90;99.90
285;DHT22;127;48.770;9.212;2022-10-31T13:40:53;18.80;99.90
285;DHT22;127;48.770;9.212;2022-10-31T13:43:28;19.20;99.90
285;DHT22;127;48.770;9.212;2022-10-31T13:45:59;20.20;99.90
285;DHT22;127;48.770;9.212;2022-10-31T13:48:39;21.80;99.90
285;DHT22;127;48.770;9.212;2022-10-31T13:51:09;23.30;99.90
285;DHT22;127;48.770;9.212;2022-10-31T13:53:44;24.60;99.90
285;DHT22;127;48.770;9.212;2022-10-31T13:56:21;25.10;99.90
285;DHT22;127;48.770;9.212;2022-10-31T13:59:01;24.20;99.90
285;DHT22;127;48.770;9.212;2022-10-31T14:01:31;24.20;99.90
285;DHT22;127;48.770;9.212;2022-10-31T14:04:04;22.90;99.90
285;DHT22;127;48.770;9.212;2022-10-31T14:06:42;23.00;99.90
285;DHT22;127;48.770;9.212;2022-10-31T14:09:31;23.10;99.90
285;DHT22;127;48.770;9.212;2022-10-31T14:12:04;23.20;99.90
285;DHT22;127;48.770;9.212;2022-10-31T14:14:41;23.10;99.90
285;DHT22;127;48.770;9.212;2022-10-31T14:17:21;23.10;99.90
285;DHT22;127;48.770;9.212;2022-10-31T14:20:24;23.20;99.90
285;DHT22;127;48.770;9.212;2022-10-31T14:22:53;23.20;99.90
285;DHT22;127;48.770;9.212;2022-10-31T14:25:32;22.90;99.90
285;DHT22;127;48.770;9.212;2022-10-31T14:28:03;22.30;99.90
285;DHT22;127;48.770;9.212;2022-10-31T14:30:52;21.90;99.90
285;DHT22;127;48.770;9.212;2022-10-31T14:33:22;21.40;99.90
285;DHT22;127;48.770;9.212;2022-10-31T14:36:08;21.40;99.90
285;DHT22;127;48.770;9.212;2022-10-31T14:38:56;22.40;99.90
285;DHT22;127;48.770;9.212;2022-10-31T14:41:51;22.60;99.90
285;DHT22;127;48.770;9.212;2022-10-31T14:44:42;22.00;99.90
285;DHT22;127;48.770;9.212;2022-10-31T14:47:21;20.80;99.90
285;DHT22;127;48.770;9.212;2022-10-31T14:50:10;19.90;99.90
285;DHT22;127;48.770;9.212;2022-10-31T14:52:46;19.60;99.90
285;DHT22;127;48.770;9.212;2022-10-31T14:55:18;19.80;99.90
285;DHT22;127;48.770;9.212;2022-10-31T14:57:52;19.60;99.90
285;DHT22;127;48.770;9.212;2022-10-31T15:00:23;19.00;99.90
285;DHT22;127;48.770;9.212;2022-10-31T15:03:03;18.40;99.90
285;DHT22;127;48.770;9.212;2022-10-31T15:05:34;18.20;99.90
285;DHT22;127;48.770;9.212;2022-10-31T15:08:04;18.30;99.90
285;DHT22;127;48.770;9.212;2022-10-31T15:10:36;18.50;99.90
285;DHT22;127;48.770;9.212;2022-10-31T15:13:17;18.60;99.90
285;DHT22;127;48.770;9.212;2022-10-31T15:15:47;18.40;99.90
285;DHT22;127;48.770;9.212;2022-10-31T15:18:18;18.20;99.90
285;DHT22;127;48.770;9.212;2022-10-31T15:20:47;17.90;99.90
285;DHT22;127;48.770;9.212;2022-10-31T15:23:20;17.70;99.90
285;DHT22;127;48.770;9.212;2022-10-31T15:25:49;17.90;99.90
285;DHT22;127;48.770;9.212;2022-10-31T15:28:27;17.50;99.90
285;DHT22;127;48.770;9.212;2022-10-31T15:30:58;17.30;99.90
285;DHT22;127;48.770;9.212;2022-10-31T15:33:29;17.40;99.90
285;DHT22;127;48.770;9.212;2022-10-31T15:35:59;17.40;99.90
285;DHT22;127;48.770;9.212;2022-10-31T15:38:28;17.10;99.90
285;DHT22;127;48.770;9.212;2022-10-31T15:41:00;17.10;99.90
285;DHT22;127;48.770;9.212;2022-10-31T15:43:36;17.10;99.90
285;DHT22;127;48.770;9.212;2022-10-31T15:46:07;17.00;99.90
285;DHT22;127;48.770;9.212;2022-10-31T15:48:36;16.90;99.90
285;DHT22;127;48.770;9.212;2022-10-31T15:51:06;16.80;99.90
285;DHT22;127;48.770;9.212;2022-10-31T15:53:37;16.60;99.90
285;DHT22;127;48.770;9.212;2022-10-31T15:56:12;16.50;99.90
285;DHT22;127;48.770;9.212;2022-10-31T15:58:47;16.20;99.90
285;DHT22;127;48.770;9.212;2022-10-31T16:01:21;16.00;99.90
285;DHT22;127;48.770;9.212;2022-10-31T16:04:02;16.00;99.90
285;DHT22;127;48.770;9.212;2022-10-31T16:06:32;16.00;99.90
285;DHT22;127;48.770;9.212;2022-10-31T16:09:02;16.00;99.90
285;DHT22;127;48.770;9.212;2022-10-31T16:11:35;15.90;99.90
285;DHT22;127;48.770;9.212;2022-10-31T16:14:15;15.90;99.90
285;DHT22;127;48.770;9.212;2022-10-31T16:16:46;15.80;99.90
285;DHT22;127;48.770;9.212;2022-10-31T16:19:21;15.60;99.90
285;DHT22;127;48.770;9.212;2022-10-31T16:21:53;15.50;99.90
285;DHT22;127;48.770;9.212;2022-10-31T16:24:26;15.40;99.90
285;DHT22;127;48.770;9.212;2022-10-31T16:27:02;15.40;99.90
285;DHT22;127;48.770;9.212;2022-10-31T16:29:41;15.20;99.90
285;DHT22;127;48.770;9.212;2022-10-31T16:32:27;15.20;99.90
285;DHT22;127;48.770;9.212;2022-10-31T16:35:25;15.10;99.90
285;DHT22;127;48.770;9.212;2022-10-31T16:37:54;15.00;99.90
285;DHT22;127;48.770;9.212;2022-10-31T16:40:23;14.90;99.90
285;DHT22;127;48.770;9.212;2022-10-31T16:42:52;14.90;99.90
285;DHT22;127;48.770;9.212;2022-10-31T16:45:25;14.70;99.90
285;DHT22;127;48.770;9.212;2022-10-31T16:47:54;14.50;99.90
285;DHT22;127;48.770;9.212;2022-10-31T16:50:29;14.40;99.90
285;DHT22;127;48.770;9.212;2022-10-31T16:52:58;14.20;99.90
285;DHT22;127;48.770;9.212;2022-10-31T16:55:27;14.10;99.90
285;DHT22;127;48.770;9.212;2022-10-31T16:57:56;14.10;99.90
285;DHT22;127;48.770;9.212;2022-10-31T17:00:28;14.10;99.90
285;DHT22;127;48.770;9.212;2022-10-31T17:02:57;14.10;99.90
285;DHT22;127;48.770;9.212;2022-10-31T17:05:25;14.10;99.90
285;DHT22;127;48.770;9.212;2022-10-31T17:07:55;14.00;99.90
285;DHT22;127;48.770;9.212;2022-10-31T17:10:24;14.00;99.90
285;DHT22;127;48.770;9.212;2022-10-31T17:12:54;14.00;99.90
285;DHT22;127;48.770;9.212;2022-10-31T17:15:29;14.00;99.90
285;DHT22;127;48.770;9.212;2022-10-31T17:17:59;13.90;99.90
285;DHT22;127;48.770;9.212;2022-10-31T17:20:29;13.80;99.90
285;DHT22;127;48.770;9.212;2022-10-31T17:22:59;13.80;99.90
285;DHT22;127;48.770;9.212;2022-10-31T17:25:29;13.80;99.90
285;DHT22;127;48.770;9.212;2022-10-31T17:27:58;13.90;99.90
285;DHT22;127;48.770;9.212;2022-10-31T17:30:31;13.80;99.90
285;DHT22;127;48.770;9.212;2022-10-31T17:33:01;13.80;99.90
285;DHT22;127;48.770;9.212;2022-10-31T17:35:30;13.70;99.90
285;DHT22;127;48.770;9.212;2022-10-31T17:37:58;13.70;99.90
285;DHT22;127;48.770;9.212;2022-10-31T17:40:27;13.70;99.90
285;DHT22;127;48.770;9.212;2022-10-31T17:42:56;13.60;99.90
285;DHT22;127;48.770;9.212;2022-10-31T17:45:28;13.60;99.90
285;DHT22;127;48.770;9.212;2022-10-31T17:47:57;13.50;99.90
285;DHT22;127;48.770;9.212;2022-10-31T17:50:26;13.40;99.90
285;DHT22;127;48.770;9.212;2022-10-31T17:52:58;13.30;99.90
285;DHT22;127;48.770;9.212;2022-10-31T17:55:27;13.20;99.90
285;DHT22;127;48.770;9.212;2022-10-31T17:57:56;13.20;99.90
285;DHT22;127;48.770;9.212;2022-10-31T18:00:25;13.20;99.90
285;DHT22;127;48.770;9.212;2022-10-31T18:02:56;13.20;99.90
285;DHT22;127;48.770;9.212;2022-10-31T18:05:24;13.20;99.90
285;DHT22;127;48.770;9.212;2022-10-31T18:07:53;13.30;99.90
285;DHT22;127;48.770;9.212;2022-10-31T18:10:22;13.20;99.90
285;DHT22;127;48.770;9.212;2022-10-31T18:12:50;13.20;99.90
285;DHT22;127;48.770;9.212;2022-10-31T18:15:19;13.20;99.90
285;DHT22;127;48.770;9.212;2022-10-31T18:17:48;13.20;99.90
285;DHT22;127;48.770;9.212;2022-10-31T18:20:19;13.10;99.90
285;DHT22;127;48.770;9.212;2022-10-31T18:22:48;13.10;99.90
285;DHT22;127;48.770;9.212;2022-10-31T18:25:17;13.10;99.90
285;DHT22;127;48.770;9.212;2022-10-31T18:27:45;13.10;99.90
285;DHT22;127;48.770;9.212;2022-10-31T18:30:16;13.00;99.90
285;DHT22;127;48.770;9.212;2022-10-31T18:32:48;13.10;99.90
285;DHT22;127;48.770;9.212;2022-10-31T18:35:20;13.10;99.90
285;DHT22;127;48.770;9.212;2022-10-31T18:37:48;13.20;99.90
285;DHT22;127;48.770;9.212;2022-10-31T18:40:17;13.30;99.90
285;DHT22;127;48.770;9.212;2022-10-31T18:42:46;13.40;99.90
285;DHT22;127;48.770;9.212;2022-10-31T18:45:14;13.40;99.90
285;DHT22;127;48.770;9.212;2022-10-31T18:47:43;13.30;99.90
285;DHT22;127;48.770;9.212;2022-10-31T18:50:12;13.30;99.90
285;DHT22;127;48.770;9.212;2022-10-31T18:52:43;13.30;99.90
285;DHT22;127;48.770;9.212;2022-10-31T18:55:12;13.20;99.90
285;DHT22;127;48.770;9.212;2022-10-31T18:57:41;13.30;99.90